Time;durP1;ratioP1;P1;durP2;ratioP2;P2;SDS_P1;SDS_P2;PMS_P1;PMS_P2;Temp;Humidity;BMP_temperature;BMP_pressure;BME280_temperature;BME280_humidity;BME280_pressure;Samples;Min_cycle;Max_cycle;Signal;HPM_P1;HPM_P2
2021/12/16 00:02:41;;;;;;;;;46.33;42.00;;;;;13.40;60.28;102768.41;6129301;23;45741;-86
2021/12/16 00:07:58;;;;;;;;;41.67;38.00;;;;;13.38;60.37;102771.88;6128527;23;45504;-85
2021/12/16 00:10:36;;;;;;;;;39.00;36.67;;;;;13.38;60.41;102788.81;6128429;23;45631;-86
2021/12/16 00:31:59;;;;;;;;;43.33;37.00;;;;;13.44;60.26;102776.53;6188027;23;45693;-85
2021/12/16 00:34:29;;;;;;;;;46.00;39.00;;;;;13.59;60.74;102779.72;6167125;23;44753;-85
2021/12/16 00:37:01;;;;;;;;;38.00;33.33;;;;;13.83;59.96;102779.66;6193664;23;45509;-86
2021/12/16 00:39:41;;;;;;;;;44.67;39.67;;;;;13.79;60.27;102786.69;6192665;23;45374;-85
2021/12/16 00:42:15;;;;;;;;;46.00;39.33;;;;;13.63;60.23;102770.94;6192966;23;45865;-85
2021/12/16 00:56:03;;;;;;;;;47.00;41.33;;;;;13.72;60.19;102770.38;6191581;23;45264;-86
2021/12/16 00:58:36;;;;;;;;;48.67;41.67;;;;;13.79;60.18;102772.38;6164436;23;45447;-85
2021/12/16 01:03:43;;;;;;;;;43.00;38.00;;;;;13.64;60.18;102772.78;6190138;23;45877;-87
2021/12/16 01:06:28;;;;;;;;;49.00;40.33;;;;;13.58;60.28;102756.53;6163213;23;45337;-86
2021/12/16 01:35:00;;;;;;;;;40.00;37.00;;;;;13.61;60.15;102772.66;6069572;23;45852;-85
2021/12/16 01:40:12;;;;;;;;;43.67;38.33;;;;;13.64;60.36;102770.13;6068403;23;45382;-86
2021/12/16 01:45:41;;;;;;;;;33.33;33.00;;;;;13.80;60.22;102779.56;6069948;23;45394;-84
2021/12/16 01:50:50;;;;;;;;;40.00;37.33;;;;;13.68;60.24;102776.47;6071773;23;45326;-85
2021/12/16 01:59:16;;;;;;;;;37.67;33.00;;;;;13.87;59.94;102786.00;6011177;23;45505;-85
2021/12/16 02:01:41;;;;;;;;;34.00;31.67;;;;;13.67;60.32;102778.22;6074688;23;45314;-83
2021/12/16 02:04:28;;;;;;;;;43.67;35.00;;;;;13.92;60.23;102789.75;6099242;23;45870;-83
2021/12/16 02:09:34;;;;;;;;;49.67;39.00;;;;;13.90;59.91;102788.81;6099297;23;46073;-83
2021/12/16 02:36:24;;;;;;;;;38.33;34.67;;;;;14.04;60.01;102795.53;6193176;23;45695;-83
2021/12/16 02:38:55;;;;;;;;;34.00;33.67;;;;;14.07;59.48;102790.25;6192623;23;45243;-82
2021/12/16 02:41:22;;;;;;;;;41.33;35.33;;;;;13.92;59.77;102784.41;6192061;23;46258;-82
2021/12/16 02:49:00;;;;;;;;;40.67;34.00;;;;;13.83;59.82;102785.00;6193813;23;44799;-83
2021/12/16 02:51:28;;;;;;;;;41.67;37.33;;;;;14.01;59.70;102782.94;6192601;23;45379;-83
2021/12/16 02:54:00;;;;;;;;;41.00;37.67;;;;;14.04;59.84;102792.84;6167636;23;45403;-83
2021/12/16 02:56:26;;;;;;;;;40.33;33.33;;;;;13.87;59.94;102791.38;6195628;23;45330;-83
2021/12/16 02:58:53;;;;;;;;;24.67;21.67;;;;;13.95;59.88;102789.84;6166962;23;45361;-83
2021/12/16 03:01:24;;;;;;;;;38.00;34.33;;;;;13.99;59.97;102786.41;6167714;23;48324;-83
2021/12/16 03:03:51;;;;;;;;;48.00;40.00;;;;;13.78;60.01;102775.94;6166162;23;45395;-83
2021/12/16 03:06:16;;;;;;;;;45.00;38.00;;;;;13.80;59.67;102796.50;6192735;23;45291;-84
2021/12/16 03:08:42;;;;;;;;;46.67;40.67;;;;;13.68;60.05;102788.06;6166104;23;44802;-83
2021/12/16 03:14:23;;;;;;;;;46.67;40.33;;;;;13.60;60.05;102785.13;6128584;23;45712;-84
2021/12/16 03:22:09;;;;;;;;;47.33;39.67;;;;;13.74;60.06;102790.97;6133476;23;45385;-83
2021/12/16 03:25:10;;;;;;;;;51.33;39.33;;;;;13.56;60.33;102793.00;6132958;23;45729;-83
2021/12/16 03:27:41;;;;;;;;;45.67;41.00;;;;;13.54;60.29;102792.03;6130784;23;45794;-83
2021/12/16 03:33:13;;;;;;;;;51.25;42.25;;;;;13.58;60.19;102784.16;6130775;23;45824;-84
2021/12/16 03:35:52;;;;;;;;;42.33;39.33;;;;;13.64;60.27;102794.19;6130907;23;44741;-84
2021/12/16 03:38:19;;;;;;;;;48.00;39.67;;;;;13.67;60.19;102799.63;6103000;23;45618;-84
2021/12/16 03:40:44;;;;;;;;;48.75;40.75;;;;;13.70;60.12;102799.72;6132896;23;45889;-83
2021/12/16 03:43:14;;;;;;;;;49.00;43.00;;;;;13.88;60.23;102793.19;6130427;23;46078;-84
2021/12/16 03:48:45;;;;;;;;;47.67;41.67;;;;;13.99;59.65;102798.03;6129570;23;45389;-83
2021/12/16 03:51:13;;;;;;;;;48.33;42.00;;;;;13.85;59.60;102793.97;6138869;23;45320;-83
2021/12/16 03:53:41;;;;;;;;;50.33;41.00;;;;;13.69;60.20;102800.56;6159895;23;46878;-84
2021/12/16 03:56:07;;;;;;;;;48.67;40.67;;;;;13.67;60.25;102793.38;6164364;23;45750;-83
2021/12/16 03:58:33;;;;;;;;;46.00;38.00;;;;;13.70;60.03;102799.72;6163422;23;45389;-83
2021/12/16 04:01:05;;;;;;;;;46.67;38.33;;;;;13.96;60.04;102803.28;6162561;23;45611;-83
2021/12/16 04:03:31;;;;;;;;;46.00;41.00;;;;;13.70;60.07;102788.13;6162113;23;47175;-83
2021/12/16 04:05:57;;;;;;;;;42.00;35.00;;;;;13.69;59.98;102797.00;6163390;23;45442;-83
2021/12/16 04:08:22;;;;;;;;;46.00;39.33;;;;;13.67;60.40;102793.38;6161116;23;45410;-83
2021/12/16 04:11:06;;;;;;;;;46.00;40.67;;;;;13.99;59.78;102813.16;6163736;23;45342;-83
2021/12/16 04:13:40;;;;;;;;;52.33;42.00;;;;;13.83;59.98;102800.16;6164216;23;46366;-83
2021/12/16 04:16:06;;;;;;;;;48.67;41.67;;;;;13.72;60.11;102800.69;6160520;23;45600;-82
2021/12/16 04:18:32;;;;;;;;;53.67;43.00;;;;;13.72;59.95;102800.69;6163825;23;45290;-83
2021/12/16 04:20:58;;;;;;;;;52.33;43.00;;;;;13.75;60.22;102795.44;6164259;23;45716;-83
2021/12/16 04:23:24;;;;;;;;;52.67;41.33;;;;;13.74;59.96;102790.97;6164510;23;45318;-83
2021/12/16 04:25:49;;;;;;;;;44.33;40.00;;;;;13.75;60.05;102799.88;6161749;23;45373;-84
2021/12/16 04:28:27;;;;;;;;;50.00;40.67;;;;;14.06;59.53;102801.81;6164107;23;45348;-83
2021/12/16 04:30:56;;;;;;;;;47.67;41.00;;;;;13.82;59.92;102811.72;6165323;23;45324;-83
2021/12/16 04:33:21;;;;;;;;;45.00;41.00;;;;;13.80;59.91;102823.25;6161244;23;47009;-82
2021/12/16 04:35:47;;;;;;;;;50.33;42.33;;;;;13.73;59.91;102804.25;6160798;23;44776;-84
2021/12/16 04:38:14;;;;;;;;;53.00;44.33;;;;;13.75;60.01;102805.22;6165701;23;45314;-84
2021/12/16 04:40:43;;;;;;;;;47.33;39.67;;;;;13.73;60.13;102809.63;6193559;23;45671;-85
2021/12/16 04:43:10;;;;;;;;;50.00;42.00;;;;;13.88;60.30;102819.94;6165991;23;47489;-84
2021/12/16 04:45:51;;;;;;;;;47.33;41.33;;;;;14.05;59.80;102813.38;6192665;23;45803;-83
2021/12/16 04:48:17;;;;;;;;;49.00;40.33;;;;;13.82;60.35;102817.06;6167842;22;44879;-84
2021/12/16 04:50:42;;;;;;;;;49.33;40.33;;;;;13.78;60.15;102808.91;6166973;23;45373;-83
2021/12/16 04:53:08;;;;;;;;;49.00;40.67;;;;;13.75;60.27;102807.91;6167189;23;48378;-83
2021/12/16 04:55:33;;;;;;;;;46.00;40.00;;;;;13.54;59.93;102768.88;6170117;23;45640;-83
2021/12/16 04:57:59;;;;;;;;;51.00;42.67;;;;;13.64;60.26;102783.47;6194116;23;45336;-83
2021/12/16 05:00:26;;;;;;;;;49.33;39.00;;;;;13.93;60.00;102804.94;6169967;23;45748;-83
2021/12/16 05:02:52;;;;;;;;;52.33;42.67;;;;;13.82;60.27;102809.03;6194691;23;46164;-82
2021/12/16 05:05:18;;;;;;;;;48.67;41.00;;;;;13.72;60.31;102789.09;6194643;23;45343;-83
2021/12/16 05:07:47;;;;;;;;;47.00;41.00;;;;;13.85;60.04;102793.09;6167058;23;45383;-83
2021/12/16 05:10:14;;;;;;;;;37.67;35.00;;;;;13.91;60.01;102814.69;6167431;23;45375;-84
2021/12/16 05:12:44;;;;;;;;;44.33;39.33;;;;;13.89;59.96;102789.66;6195318;23;45726;-83
2021/12/16 05:15:17;;;;;;;;;47.00;39.00;;;;;13.90;59.97;102795.06;6195218;23;45335;-83
2021/12/16 05:17:45;;;;;;;;;45.33;38.67;;;;;13.77;59.96;102811.53;6168514;23;45291;-83
2021/12/16 05:20:16;;;;;;;;;52.33;43.67;;;;;14.00;60.05;102820.34;6167857;23;45483;-83
2021/12/16 05:28:57;;;;;;;;;50.67;40.67;;;;;14.11;59.49;102834.97;6195309;23;45370;-84
2021/12/16 05:31:25;;;;;;;;;43.33;37.00;;;;;13.80;60.43;102823.25;6167830;23;44801;-84
2021/12/16 05:33:52;;;;;;;;;44.33;39.33;;;;;13.77;60.50;102822.22;6169166;23;46144;-83
2021/12/16 05:36:25;;;;;;;;;48.00;39.00;;;;;13.69;60.37;102834.44;6168415;23;45825;-83
2021/12/16 05:38:50;;;;;;;;;41.00;38.00;;;;;13.61;60.47;102826.13;6188810;23;45515;-84
2021/12/16 05:41:21;;;;;;;;;45.00;38.67;;;;;13.82;60.38;102830.44;6165747;23;45362;-84
2021/12/16 05:43:48;;;;;;;;;49.00;41.67;;;;;13.67;60.50;102850.41;6188242;23;47159;-83
2021/12/16 05:46:14;;;;;;;;;55.67;43.33;;;;;13.70;60.64;102831.81;6163594;23;44759;-83
2021/12/16 05:48:42;;;;;;;;;42.00;38.00;;;;;13.78;60.45;102850.81;6163005;23;45704;-82
2021/12/16 05:51:18;;;;;;;;;44.33;39.67;;;;;13.88;60.57;102847.59;6161745;23;45448;-83
2021/12/16 05:53:46;;;;;;;;;51.67;41.00;;;;;13.83;60.36;102853.63;6161990;23;47021;-83
2021/12/16 05:56:12;;;;;;;;;45.00;38.00;;;;;13.67;60.69;102853.09;6162188;23;45126;-83
2021/12/16 05:58:38;;;;;;;;;46.00;40.25;;;;;13.65;60.38;102848.56;6166463;23;45338;-83
2021/12/16 06:01:22;;;;;;;;;48.33;41.67;;;;;13.90;60.38;102850.34;6165681;23;45360;-83
2021/12/16 06:03:48;;;;;;;;;53.00;44.25;;;;;13.64;60.82;102858.34;6165619;23;48143;-83
2021/12/16 06:06:15;;;;;;;;;45.75;41.00;;;;;13.60;60.77;102851.06;6168832;23;45262;-83
2021/12/16 06:08:40;;;;;;;;;27.00;26.67;;;;;13.67;60.88;102869.13;6164272;23;45468;-83
2021/12/16 06:14:28;;;;;;;;;50.00;43.33;;;;;14.07;60.15;102861.59;6162315;23;44881;-83
2021/12/16 06:28:03;;;;;;;;;48.75;41.75;;;;;13.68;60.78;102868.28;6167682;23;45609;-84
2021/12/16 06:30:32;;;;;;;;;52.25;44.00;;;;;13.75;60.70;102859.63;6189163;23;45430;-82
2021/12/16 06:32:58;;;;;;;;;56.00;45.33;;;;;13.74;60.82;102868.50;6165211;23;45326;-84
2021/12/16 06:35:24;;;;;;;;;48.67;42.33;;;;;13.71;60.92;102860.38;6191933;23;46929;-82
2021/12/16 06:37:50;;;;;;;;;53.00;44.50;;;;;13.72;60.69;102846.16;6169997;23;45298;-84
2021/12/16 06:40:18;;;;;;;;;43.67;40.00;;;;;13.90;60.68;102850.34;6194047;23;45557;-84
2021/12/16 06:42:46;;;;;;;;;55.75;45.00;;;;;13.80;60.55;102860.69;6171947;23;45462;-83
2021/12/16 06:45:18;;;;;;;;;41.33;39.00;;;;;13.78;60.59;102859.75;6174041;23;46927;-83
2021/12/16 06:47:48;;;;;;;;;47.00;38.25;;;;;13.78;60.89;102846.38;6198682;23;45621;-83
2021/12/16 06:50:27;;;;;;;;;51.67;42.33;;;;;13.85;60.47;102835.88;6198879;23;45687;-83
2021/12/16 06:52:58;;;;;;;;;51.33;44.33;;;;;13.88;60.42;102846.69;6170975;23;44801;-84
2021/12/16 06:55:37;;;;;;;;;59.00;48.25;;;;;13.60;60.60;102853.75;6171814;23;47738;-83
2021/12/16 07:00:50;;;;;;;;;51.00;41.67;;;;;13.55;60.78;102845.56;6191510;23;45420;-84
2021/12/16 07:03:21;;;;;;;;;52.50;43.25;;;;;13.78;60.69;102883.81;6169946;23;45325;-83
2021/12/16 07:05:53;;;;;;;;;56.25;45.00;;;;;13.82;60.86;102883.94;6170550;23;46731;-86
2021/12/16 07:08:20;;;;;;;;;58.50;44.00;;;;;13.73;60.93;102880.03;6178929;22;45147;-87
2021/12/16 07:10:48;;;;;;;;;47.67;42.00;;;;;13.62;60.72;102857.38;6232669;22;44842;-86
2021/12/16 07:13:28;;;;;;;;;60.25;47.25;;;;;13.86;60.68;102891.19;6230371;22;44784;-86
2021/12/16 07:15:57;;;;;;;;;58.75;47.75;;;;;13.47;60.79;102855.09;6234322;22;45180;-86
2021/12/16 07:18:23;;;;;;;;;58.50;46.25;;;;;13.64;61.07;102878.84;6233515;22;44699;-86
2021/12/16 07:20:49;;;;;;;;;53.75;44.25;;;;;13.63;60.97;102877.91;6229328;22;45747;-83
2021/12/16 07:23:15;;;;;;;;;53.00;43.25;;;;;13.54;61.03;102846.41;6255689;22;45442;-83
2021/12/16 07:25:41;;;;;;;;;53.75;44.75;;;;;13.78;60.86;102889.16;6222834;22;46428;-82
2021/12/16 07:28:07;;;;;;;;;47.50;41.75;;;;;13.71;60.97;102870.16;6196285;22;45281;-83
2021/12/16 07:30:39;;;;;;;;;51.50;43.00;;;;;13.93;60.79;102899.47;6196701;22;44795;-83
2021/12/16 07:33:05;;;;;;;;;57.75;46.75;;;;;13.87;60.74;102876.97;6196785;22;45394;-83
2021/12/16 07:35:32;;;;;;;;;57.75;47.00;;;;;13.79;60.83;102877.63;6223382;22;46460;-83
2021/12/16 07:37:57;;;;;;;;;53.25;44.50;;;;;13.77;60.69;102873.94;6224313;22;45354;-83
2021/12/16 07:40:26;;;;;;;;;47.50;40.75;;;;;14.11;60.80;102892.94;6196390;22;45259;-83
2021/12/16 07:46:11;;;;;;;;;55.25;47.25;;;;;13.96;60.70;102877.28;6224523;22;45358;-83
2021/12/16 07:48:37;;;;;;;;;57.25;48.00;;;;;13.90;60.69;102885.09;6222339;22;45295;-82
2021/12/16 07:51:05;;;;;;;;;59.75;47.50;;;;;14.14;60.72;102887.72;6199943;22;45443;-82
2021/12/16 07:53:31;;;;;;;;;58.75;48.00;;;;;13.88;60.60;102900.19;6200411;22;45331;-82
2021/12/16 07:59:19;;;;;;;;;58.00;47.75;;;;;13.78;60.90;102877.56;6226137;22;45663;-82
2021/12/16 08:01:45;;;;;;;;;54.75;47.00;;;;;13.83;60.80;102885.72;6226466;22;45568;-83
2021/12/16 08:04:19;;;;;;;;;52.00;44.75;;;;;14.01;60.94;102902.41;6196064;22;45397;-83
2021/12/16 08:06:48;;;;;;;;;59.00;47.75;;;;;13.93;61.06;102882.53;6196112;22;47134;-82
2021/12/16 08:09:14;;;;;;;;;58.00;46.50;;;;;13.90;60.49;102907.41;6189147;23;45385;-82
2021/12/16 08:11:48;;;;;;;;;64.75;49.75;;;;;13.99;60.59;102921.09;6191914;22;44730;-83
2021/12/16 08:14:15;;;;;;;;;60.75;49.75;;;;;13.82;60.85;102911.56;6191159;23;45375;-82
2021/12/16 08:16:40;;;;;;;;;60.50;48.75;;;;;13.76;60.98;102898.00;6194657;23;46909;-81
2021/12/16 08:19:08;;;;;;;;;56.00;47.00;;;;;14.05;60.84;102912.38;6191867;23;45404;-82
2021/12/16 08:21:35;;;;;;;;;53.00;41.00;;;;;13.96;60.79;102910.28;6165896;23;45346;-83
2021/12/16 08:24:03;;;;;;;;;57.75;47.50;;;;;13.83;60.62;102875.03;6193493;22;45675;-83
2021/12/16 08:26:30;;;;;;;;;60.75;49.25;;;;;13.84;60.71;102908.97;6194632;22;46309;-83
2021/12/16 08:28:56;;;;;;;;;60.75;50.00;;;;;13.99;60.87;102925.53;6194587;22;45274;-82
2021/12/16 08:31:22;;;;;;;;;57.75;48.75;;;;;13.97;60.88;102930.81;6194263;22;45412;-83
2021/12/16 08:33:48;;;;;;;;;59.25;49.50;;;;;14.00;60.62;102914.00;6195473;22;45272;-82
2021/12/16 08:36:15;;;;;;;;;58.50;48.75;;;;;13.96;60.83;102893.34;6192523;23;47040;-83
2021/12/16 08:38:44;;;;;;;;;58.75;48.75;;;;;14.26;60.47;102919.31;6192886;22;45349;-82
2021/12/16 08:41:18;;;;;;;;;61.00;50.00;;;;;14.33;60.39;102932.94;6193069;23;45548;-83
2021/12/16 08:43:44;;;;;;;;;56.25;47.25;;;;;13.88;60.50;102884.16;6193248;23;45510;-84
2021/12/16 08:46:14;;;;;;;;;58.25;49.50;;;;;14.27;60.62;102922.03;6193618;22;45406;-85
2021/12/16 08:48:45;;;;;;;;;60.00;50.50;;;;;14.27;60.68;102938.09;6194981;22;45805;-84
2021/12/16 08:51:58;;;;;;;;;60.75;50.00;;;;;14.53;59.96;102938.97;6200759;23;45544;-83
2021/12/16 08:54:24;;;;;;;;;58.00;49.50;;;;;14.19;60.05;102935.16;6181866;23;45014;-83
2021/12/16 08:56:51;;;;;;;;;55.75;47.25;;;;;13.91;60.47;102908.31;6197257;22;46143;-84
2021/12/16 08:59:20;;;;;;;;;62.75;50.25;;;;;14.03;60.51;102921.19;6195731;23;45434;-83
2021/12/16 09:01:48;;;;;;;;;56.75;47.25;;;;;14.10;60.41;102908.09;6198196;22;45352;-83
2021/12/16 09:07:48;;;;;;;;;64.00;50.75;;;;;14.39;59.83;102927.81;6198880;23;45353;-85
2021/12/16 09:10:26;;;;;;;;;61.25;51.00;;;;;14.47;60.11;102929.84;6221610;22;45228;-83
2021/12/16 09:13:04;;;;;;;;;60.00;49.00;;;;;14.41;60.34;102946.59;6202562;22;45368;-84
2021/12/16 09:15:44;;;;;;;;;57.50;47.75;;;;;14.55;59.64;102937.25;6199500;22;45799;-82
2021/12/16 09:18:12;;;;;;;;;59.75;48.75;;;;;14.65;59.77;102953.69;6228211;22;45456;-83
2021/12/16 09:21:03;;;;;;;;;55.75;47.25;;;;;14.82;59.44;102963.16;6205359;22;45672;-84
2021/12/16 09:23:47;;;;;;;;;62.50;51.50;;;;;14.64;59.72;102947.38;6195474;22;44821;-82
2021/12/16 09:26:21;;;;;;;;;55.00;45.50;;;;;14.75;59.58;102963.81;6224721;22;44816;-83
2021/12/16 09:28:50;;;;;;;;;63.25;50.50;;;;;14.51;59.84;102954.09;6200931;22;46825;-83
2021/12/16 09:31:27;;;;;;;;;60.25;50.00;;;;;14.63;59.44;102931.28;6226767;22;45477;-84
2021/12/16 09:34:04;;;;;;;;;64.50;51.75;;;;;14.83;59.42;102954.25;6202740;22;44947;-83
2021/12/16 09:36:30;;;;;;;;;62.00;49.25;;;;;14.60;59.34;102942.78;6227533;22;44875;-84
2021/12/16 09:38:57;;;;;;;;;56.50;46.75;;;;;15.04;59.07;102966.50;6227668;22;46321;-83
2021/12/16 09:41:23;;;;;;;;;58.25;46.25;;;;;14.80;58.72;102956.81;6226757;22;45353;-83
2021/12/16 09:43:53;;;;;;;;;62.50;50.50;;;;;14.86;58.92;102948.09;6199052;22;45393;-83
2021/12/16 09:46:23;;;;;;;;;57.75;46.00;;;;;14.99;59.05;102967.28;6175278;22;45549;-83
2021/12/16 09:48:52;;;;;;;;;67.50;52.00;;;;;14.84;59.05;102980.19;6227603;22;45343;-84
2021/12/16 09:54:56;;;;;;;;;63.75;51.50;;;;;15.13;58.87;102978.44;6230326;22;45085;-87
2021/12/16 09:57:34;;;;;;;;;61.50;51.25;;;;;15.22;58.60;102993.88;6211179;22;45324;-84
2021/12/16 10:00:10;;;;;;;;;61.75;49.50;;;;;15.21;58.87;102992.09;6232478;22;46765;-85
2021/12/16 10:02:38;;;;;;;;;64.75;51.75;;;;;14.97;58.93;103003.84;6228160;22;45356;-87
2021/12/16 10:05:07;;;;;;;;;55.33;46.00;;;;;15.04;58.76;102982.59;6200059;22;45779;-84
2021/12/16 10:07:34;;;;;;;;;59.75;49.50;;;;;14.85;58.71;102971.28;6220156;22;45378;-84
2021/12/16 10:10:05;;;;;;;;;57.75;48.00;;;;;14.95;58.79;102988.59;6187189;23;45322;-84
2021/12/16 10:12:37;;;;;;;;;59.50;49.50;;;;;14.85;58.94;102943.59;6187631;23;45320;-84
2021/12/16 10:18:23;;;;;;;;;64.25;50.25;;;;;15.18;58.16;102962.50;6192397;22;45388;-84
2021/12/16 10:20:53;;;;;;;;;56.25;47.50;;;;;15.31;58.37;102994.19;6189637;23;47817;-84
2021/12/16 10:23:42;;;;;;;;;61.50;48.25;;;;;15.28;57.81;102956.53;6191959;22;45262;-84
2021/12/16 10:26:20;;;;;;;;;63.50;50.50;;;;;15.37;57.75;102975.59;6190634;23;45761;-85
2021/12/16 10:29:02;;;;;;;;;59.25;49.75;;;;;15.38;57.89;102974.72;6189789;23;45410;-85
2021/12/16 10:31:35;;;;;;;;;59.00;48.00;;;;;15.51;57.46;103007.25;6192270;23;45410;-84
2021/12/16 10:34:16;;;;;;;;;51.33;44.00;;;;;15.53;57.70;102989.44;6188694;23;44860;-85
2021/12/16 10:36:47;;;;;;;;;57.00;47.00;;;;;15.30;58.02;102970.00;6192483;23;44757;-86
2021/12/16 10:39:38;;;;;;;;;55.75;45.75;;;;;15.20;57.69;102948.25;6192659;23;45325;-85
2021/12/16 10:42:08;;;;;;;;;58.00;46.75;;;;;15.41;57.65;102976.56;6191933;22;45671;-86
2021/12/16 10:44:38;;;;;;;;;54.25;44.25;;;;;15.56;56.69;102992.22;6191891;23;44738;-85
2021/12/16 10:47:06;;;;;;;;;57.00;47.33;;;;;15.33;57.69;102995.13;6189456;23;45385;-85
2021/12/16 10:49:38;;;;;;;;;58.67;48.00;;;;;15.60;57.07;103000.41;6189816;23;45460;-84
2021/12/16 10:52:26;;;;;;;;;52.25;42.25;;;;;15.65;57.29;103000.53;6192187;23;45291;-83
2021/12/16 10:54:56;;;;;;;;;48.00;41.00;;;;;15.56;57.46;102986.88;6195132;23;45546;-85
2021/12/16 10:57:32;;;;;;;;;51.67;43.33;;;;;15.49;57.08;102958.03;6191815;23;45309;-83
2021/12/16 11:03:17;;;;;;;;;56.00;47.75;;;;;15.84;57.18;102985.03;6129898;23;45366;-85
2021/12/16 11:06:26;;;;;;;;;54.00;44.33;;;;;15.68;56.58;102946.97;6106998;23;44899;-84
2021/12/16 11:13:56;;;;;;;;;;;;;;;;;;;;;
2021/12/16 11:16:36;;;;;;;;;58.00;47.67;;;;;15.72;56.36;102951.59;6009900;23;73945;-85
2021/12/16 11:19:39;;;;;;;;;54.67;44.33;;;;;16.05;55.99;102980.22;5988684;23;45786;-86
2021/12/16 11:25:51;;;;;;;;;58.33;49.00;;;;;15.69;56.26;102989.03;5913849;24;45572;-84
2021/12/16 11:29:06;;;;;;;;;54.00;46.00;;;;;15.94;55.83;102969.22;5875541;24;46746;-85
2021/12/16 11:31:34;;;;;;;;;57.25;46.75;;;;;15.74;56.07;102971.34;5900325;24;45645;-84
2021/12/16 11:34:28;;;;;;;;;59.00;49.00;;;;;16.00;56.31;102968.47;5877415;24;46006;-84
2021/12/16 11:37:02;;;;;;;;;56.67;46.00;;;;;15.71;56.36;102955.09;5877560;24;45422;-86
2021/12/16 11:40:10;;;;;;;;;47.67;41.00;;;;;16.00;55.43;102934.50;5894522;24;47027;-86
2021/12/16 11:44:00;;;;;;;;;;;;;;;;;;;;;
2021/12/16 11:46:44;;;;;;;;;51.67;42.33;;;;;16.34;55.46;102977.41;5886831;24;45340;-85
2021/12/16 11:49:48;;;;;;;;;52.33;43.00;;;;;16.35;53.24;102968.50;5908227;24;45312;-85
2021/12/16 11:52:25;;;;;;;;;45.00;39.00;;;;;16.18;54.92;102974.34;5948472;23;46705;-84
2021/12/16 11:55:25;;;;;;;;;46.67;38.00;;;;;16.20;53.73;102983.34;6017082;23;45200;-85
2021/12/16 11:58:00;;;;;;;;;36.33;34.00;;;;;16.03;52.78;102979.28;5994644;23;45630;-85
2021/12/16 12:00:33;;;;;;;;;45.33;36.33;;;;;15.85;54.20;102938.53;6013413;23;45577;-85
2021/12/16 12:03:14;;;;;;;;;38.67;35.33;;;;;16.10;54.74;102973.22;6120627;23;47071;-85
2021/12/16 12:08:35;;;;;;;;;35.33;33.00;;;;;15.90;54.94;102943.16;6119262;23;45395;-85
2021/12/16 12:11:16;;;;;;;;;32.67;32.33;;;;;15.89;54.44;102930.59;6131944;23;45396;-86
2021/12/16 12:13:48;;;;;;;;;32.67;31.33;;;;;15.93;53.73;102937.84;6137489;23;45892;-86
2021/12/16 12:16:34;;;;;;;;;41.33;34.00;;;;;16.06;53.27;102960.59;6137399;23;45418;-85
2021/12/16 12:19:09;;;;;;;;;33.33;31.67;;;;;16.12;54.24;102966.13;6163701;23;45495;-85
2021/12/16 12:22:24;;;;;;;;;;;;;;;;;;;;;
2021/12/16 12:24:52;;;;;;;;;29.33;28.00;;;;;16.00;54.62;102961.31;6191405;23;74409;-85
2021/12/16 12:30:30;;;;;;;;;30.33;29.33;;;;;16.31;53.96;102935.28;6197056;23;44800;-84
2021/12/16 12:33:30;;;;;;;;;35.00;32.67;;;;;16.20;53.60;102958.28;6195734;23;44926;-85
2021/12/16 12:36:13;;;;;;;;;39.00;31.00;;;;;16.53;53.58;102963.59;6196212;23;45607;-85
2021/12/16 12:38:40;;;;;;;;;31.67;28.67;;;;;16.03;54.08;102903.22;6195105;23;45479;-86
2021/12/16 12:41:11;;;;;;;;;36.00;32.00;;;;;16.35;53.04;102920.16;6194197;23;45389;-84
2021/12/16 12:43:50;;;;;;;;;36.33;35.00;;;;;16.51;52.24;102946.53;6202101;22;44771;-85
2021/12/16 12:46:18;;;;;;;;;29.00;27.00;;;;;16.00;52.74;102904.06;6199007;23;45220;-84
2021/12/16 12:52:30;;;;;;;;;23.67;19.67;;;;;16.52;52.49;102951.06;6197152;23;45236;-83
2021/12/16 12:58:27;;;;;;;;;29.00;27.33;;;;;16.30;52.97;102927.19;6196263;23;44982;-83
2021/12/16 13:01:36;;;;;;;;;26.33;25.00;;;;;16.49;51.62;102945.59;6193610;23;45267;-83
2021/12/16 13:04:36;;;;;;;;;28.00;24.00;;;;;16.23;52.07;102910.00;6191414;23;45426;-83
2021/12/16 13:08:00;;;;;;;;;;;;;;;;;;;;;
2021/12/16 13:10:28;;;;;;;;;24.67;23.00;;;;;16.21;52.13;102906.38;6198295;22;45588;-83
2021/12/16 13:13:27;;;;;;;;;28.00;27.67;;;;;16.06;52.55;102890.81;6199868;22;44803;-82
2021/12/16 13:25:02;;;;;;;;;25.00;21.67;;;;;16.03;52.03;102917.53;6228849;22;45560;-82
2021/12/16 13:27:37;;;;;;;;;28.00;26.33;;;;;16.04;52.43;102914.00;6203972;22;45392;-82
2021/12/16 13:30:19;;;;;;;;;25.67;23.67;;;;;15.92;51.17;102929.78;6201190;22;45351;-84
2021/12/16 13:33:25;;;;;;;;;23.67;21.67;;;;;16.14;50.61;102918.75;6199721;22;45869;-84
2021/12/16 13:36:14;;;;;;;;;26.00;24.33;;;;;15.95;52.26;102908.38;6162607;23;45376;-84
2021/12/16 13:38:44;;;;;;;;;27.67;25.00;;;;;16.00;51.96;102918.38;6164557;23;45869;-84
2021/12/16 13:41:15;;;;;;;;;21.67;20.33;;;;;15.96;50.98;102904.84;6164539;22;45688;-84
2021/12/16 13:44:01;;;;;;;;;30.00;23.67;;;;;15.87;50.64;102885.81;6166525;22;45870;-83
2021/12/16 13:47:16;;;;;;;;;27.33;27.33;;;;;16.02;50.83;102922.88;6165759;22;44846;-84
2021/12/16 14:05:39;;;;;;;;;26.67;24.33;;;;;16.03;51.91;102922.03;6168379;23;45373;-81
2021/12/16 14:08:29;;;;;;;;;24.67;23.33;;;;;16.00;52.37;102928.22;6162134;23;46139;-83
2021/12/16 14:10:59;;;;;;;;;23.33;23.33;;;;;15.57;52.68;102889.44;6120970;23;45154;-83
2021/12/16 14:25:06;;;;;;;;;28.33;25.33;;;;;15.68;53.02;102871.88;6101211;23;45830;-83
2021/12/16 14:43:17;;;;;;;;;30.67;28.67;;;;;15.66;51.67;102887.03;6094392;23;46022;-81
2021/12/16 14:45:52;;;;;;;;;25.67;24.00;;;;;15.44;51.79;102906.06;6087264;23;45329;-83
2021/12/16 14:51:44;;;;;;;;;31.33;27.67;;;;;15.55;52.39;102917.97;6200142;23;45617;-82
2021/12/16 14:54:10;;;;;;;;;30.67;27.00;;;;;15.23;52.91;102896.53;6169931;23;45451;-81
2021/12/16 14:56:38;;;;;;;;;32.33;27.00;;;;;15.59;53.05;102936.91;6144652;23;45369;-83
2021/12/16 14:59:13;;;;;;;;;28.00;26.00;;;;;15.51;53.73;102903.59;6172906;23;44745;-83
2021/12/16 15:01:44;;;;;;;;;27.00;21.33;;;;;15.57;53.92;102919.88;6173510;23;44829;-83
2021/12/16 15:04:34;;;;;;;;;35.33;32.00;;;;;15.79;52.84;102932.16;6148744;23;45239;-86
2021/12/16 15:07:09;;;;;;;;;30.33;28.67;;;;;15.69;53.51;102940.75;6201333;22;45433;-84
2021/12/16 15:09:48;;;;;;;;;35.67;31.67;;;;;15.48;53.74;102900.81;6175180;22;45762;-83
2021/12/16 15:12:58;;;;;;;;;31.00;28.00;;;;;15.77;53.16;102933.88;6231014;22;45386;-84
2021/12/16 15:15:43;;;;;;;;;34.00;32.67;;;;;15.36;54.56;102933.53;6229005;22;45362;-84
2021/12/16 15:44:22;;;;;;;;;40.67;34.00;;;;;15.08;54.89;102915.72;6231692;22;45458;-84
2021/12/16 15:50:50;;;;;;;;;34.00;32.67;;;;;15.42;54.86;102948.91;6229247;22;45819;-83
2021/12/16 15:53:31;;;;;;;;;36.33;32.67;;;;;15.27;54.89;102951.13;6202502;22;45729;-84
2021/12/16 16:02:56;;;;;;;;;;;;;;;;;;;;;
2021/12/16 16:05:39;;;;;;;;;38.33;34.33;;;;;15.28;54.82;102942.25;6052003;23;44905;-83
2021/12/16 16:08:22;;;;;;;;;41.00;36.00;;;;;15.35;54.16;102942.47;6048142;23;45860;-83
2021/12/16 16:11:14;;;;;;;;;40.00;34.33;;;;;15.17;54.59;102929.44;5982822;23;45402;-83
2021/12/16 16:13:48;;;;;;;;;40.67;34.67;;;;;15.08;55.15;102925.56;5963458;23;47050;-82
2021/12/16 16:16:19;;;;;;;;;39.33;35.00;;;;;15.25;54.76;102951.09;5964477;23;44738;-83
2021/12/16 16:23:22;;;;;;;;;42.67;38.33;;;;;15.34;54.73;102946.00;5990754;23;45428;-84
2021/12/16 16:28:42;;;;;;;;;;;;;;;;;;;;;
2021/12/16 16:31:26;;;;;;;;;37.67;36.67;;;;;15.28;53.76;102945.81;6251591;22;69061;-83
2021/12/16 16:33:53;;;;;;;;;45.33;39.00;;;;;14.92;54.16;102938.47;6234064;22;44841;-82
2021/12/16 16:37:24;;;;;;;;;;;;;;;;;;;;;
2021/12/16 16:43:26;;;;;;;;;37.00;34.67;;;;;14.92;52.58;102900.06;6244527;22;45277;-82